Historyczne dane pomiarowe

Dodano dane terminowe – wersja testowa.

Dane z okresu 1951-2019

Wersja bazy: 1.34 [2019-03-16, lista zmian], aktualizacja planowana na 2019-04-15

Dane meteo z obszaru Polski uzyskane na podstawie danych udostępnionych przez Instytut Meteorologii i Gospodarki Wodnej – Państwowy Instytut Badawczy.

 

Wybierz Datę:    

       

TemperaturaWilgotnośćWiatrCiśnienieOpadyŚniegCzas trwania zjawisk
 Stacja t tx tn tng RH VA  wxwx mslp ppp RRR   cm mm wxwxwxwxwxwxwx
1994-08-14 12.0 15.5 9.0 1.4 60.8- 4.0 2.7---- 0.0------------
1994-08-13 15.5 19.1 13.1 8.6 74.3- 7.3 1.7---- 0.5------------
1994-08-12 14.4 19.1 11.2 4.8 88.5- 7.7 1.3---- 6.0------------
1994-08-11 18.2 21.7 15.7 11.2 83.5- 5.3 3.3---- 0.3------------
1994-08-10 18.7 26.3 11.8 4.8 76.8- 4.7 1.0---- 16.0------------
1994-08-09 16.2 19.6 15.0 11.0 95.0- 5.3 0.0---- 17.6------------
1994-08-08 18.2 24.1 13.5 7.7 89.0- 7.3 1.0---- 8.2------------
1994-08-07 18.9 23.1 15.0 7.3 85.5- 6.0 1.7---- 12.0------------
1994-08-06 23.5 29.0 17.0 4.8 53.8- 3.7 0.3---- 0.0------------
1994-08-05 20.5 28.7 12.5 3.8 62.8- 2.3 1.0---- 0.0------------
1994-08-04 19.4 25.3 11.6 3.6 68.5- 1.3 0.0---- 0.0------------
1994-08-03 20.1 24.2 15.0 8.6 78.5- 3.3 0.0---- 0.0------------
1994-08-02 21.3 25.6 17.3 8.6 68.3- 4.0 1.7---- 0.2------------
1994-08-01 25.0 32.0 16.8 8.8 41.3- 0.7 0.0---- 0.0------------
1994-07-31 25.0 32.3 16.5 8.4 49.5- 0.7 1.0---- 0.0------------
1994-07-30 24.8 32.3 14.8 9.1 46.8- 0.7 0.0---- 0.0------------
1994-07-29 22.5 31.3 14.8 7.1 53.3- 2.3 0.0---- 0.0------------
1994-07-28 23.1 30.8 13.2 5.3 53.0- 1.0 0.7---- 0.0------------
1994-07-27 23.5 30.3 14.3 7.7 60.8- 3.0 0.0---- 0.0------------
1994-07-26 23.1 30.9 14.4 7.7 65.8- 4.3 0.0---- 0.0------------
1994-07-25 21.5 29.7 13.4 7.2 65.3- 3.3 0.0---- 0.0------------
1994-07-24 21.0 28.2 11.1 4.3 59.0- 3.0 0.0---- 0.0------------
1994-07-23 20.7 27.1 10.2 3.1 54.8- 2.7 0.7---- 0.0------------
1994-07-22 20.4 27.1 10.1 3.4 57.8- 1.7 1.3---- 0.0------------
1994-07-21 17.6 24.5 7.1 1.5 63.3- 0.0 1.0---- 0.0------------
1994-07-20 17.4 22.9 11.0 9.1 58.8- 3.0 0.0---- 0.0------------
1994-07-19 15.6 20.7 8.3 10.6 86.3- 8.0 2.0---- 0.0------------
1994-07-18 18.0 23.5 10.3 7.0 85.8- 6.3 2.0---- 0.0------------
1994-07-17 19.0 26.0 12.4 9.1 85.3- 7.7 1.7---- 20.0------------
1994-07-16 18.2 25.5 13.4 10.6 89.3- 6.3 0.3---- 3.4------------
1994-07-15 20.7 25.0 12.3 7.7 74.0- 6.7 1.7---- 0.0------------
1994-07-14 21.6 27.6 12.2 7.7 65.0- 3.0 0.0---- 0.0------------
1994-07-13 20.3 26.4 10.8 6.2 65.8- 2.7 0.0---- 0.0------------
1994-07-12 19.7 24.5 13.8 9.8 71.5- 4.3 2.3---- 0.0------------
1994-07-11 18.2 24.0 9.4 10.6 74.8- 2.7 1.0---- 0.0------------
1994-07-10 13.5 16.9 10.5 9.6 93.3- 7.0 3.3---- 5.0------------
1994-07-09 13.0 16.9 10.6 6.4 86.8- 8.0 2.3---- 13.5------------
1994-07-08 13.5 16.9 9.2 4.8 70.0- 7.0 5.3---- 0.7------------
1994-07-07 14.2 21.0 9.8 4.4 93.5- 7.3 0.0---- 14.0------------
1994-07-06 18.5 22.9 9.0 3.4 78.0- 4.0 0.3---- 0.0------------
1994-07-05 19.5 25.0 12.8 7.3 71.0- 6.7 0.0---- 1.6------------
1994-07-04 22.4 33.6 11.8 5.4 54.5- 1.7 0.7---- 0.0------------
1994-07-03 19.6 26.6 8.4 1.5 63.3- 0.3 2.0---- 0.0------------
1994-07-02 17.5 24.5 6.8 1.0 71.0- 0.0 1.7---- 0.0------------
1994-07-01 16.0 20.9 6.8 1.0 70.0- 1.0 1.3---- 0.0------------
1994-06-30 18.6 24.7 13.7 9.6 87.0- 7.3 2.3---- 0.0------------
1994-06-29 24.2 30.5 14.9 10.1 72.0- 3.3 0.7---- 0.0------------
1994-06-28 23.7 30.0 15.1 11.4 75.3- 7.3 1.0---- 0.0------------
1994-06-27 24.6 29.5 17.5 14.3 75.8- 3.7 0.7---- 4.2------------
1994-06-26 21.7 26.5 14.8 9.4 52.5- 2.0 6.3---- 0.0------------
1994-06-25 16.7 25.0 4.4 -1.5 52.0- 0.0 1.3---- 0.0------------
1994-06-24 13.1 19.9 2.6 -3.2 55.8- 0.0 2.7---- 0.0------------
1994-06-23 16.1 23.5 11.3 9.7 52.8- 4.7 4.7---- 0.0------------
1994-06-22 19.2 23.2 10.5 6.7 63.3- 7.3 3.3---- 0.0------------
1994-06-21 14.9 20.9 5.1 0.2 70.0- 2.0 0.3---- 0.0------------
1994-06-20 14.7 23.5 8.4 3.9 75.5- 7.7 3.0---- 0.0------------
1994-06-19 18.6 24.0 10.9 9.6 54.3- 4.3 2.3---- 0.0------------
1994-06-18 10.1 17.4 1.2 -2.6 75.0- 7.3 4.3---- 0.0------------
1994-06-17 9.4 13.2 5.2 5.1 76.3- 5.3 3.0---- 0.0------------
1994-06-16 10.1 15.4 4.9 0.8 74.5- 7.3 2.7---- 7.0------------
249.1 ms

 

Źródłem pochodzenia danych jest Instytut Meteorologii i Gospodarki Wodnej – Państwowy Instytut Badawczy. Dane Instytutu Meteorologii i Gospodarki Wodnej – Państwowego Instytutu Badawczego zostały przetworzone.

Dane źródłowe można odnaleźć na stronie https://dane.imgw.pl